Time;durP1;ratioP1;P1;durP2;ratioP2;P2;SDS_P1;SDS_P2;PMS_P1;PMS_P2;Temp;Humidity;BMP_temperature;BMP_pressure;BME280_temperature;BME280_humidity;BME280_pressure;Samples;Min_cycle;Max_cycle;Signal;HPM_P1;HPM_P2
2021/09/10 00:02:18;;;;;;;8.48;7.55;;;;;;;16.90;66.32;95552.72;6171993;23;20187;-79
2021/09/10 00:04:43;;;;;;;8.20;7.07;;;;;;;16.91;66.14;95543.84;6171153;23;20178;-78
2021/09/10 00:07:08;;;;;;;8.27;7.47;;;;;;;16.91;65.70;95554.34;6142893;23;20151;-78
2021/09/10 00:09:33;;;;;;;8.20;6.85;;;;;;;16.93;65.58;95553.16;6172396;23;20182;-79
2021/09/10 00:11:59;;;;;;;9.23;7.78;;;;;;;16.93;65.54;95554.97;6148323;23;20230;-78
2021/09/10 00:14:24;;;;;;;8.95;7.47;;;;;;;16.93;65.55;95557.59;6172931;23;20679;-79
2021/09/10 00:16:49;;;;;;;8.40;7.60;;;;;;;16.88;65.94;95550.28;6173285;23;20609;-81
2021/09/10 00:19:15;;;;;;;8.27;7.40;;;;;;;16.89;65.47;95556.34;6173138;23;20166;-79
2021/09/10 00:21:40;;;;;;;8.10;7.40;;;;;;;16.90;65.41;95552.72;6173926;23;20175;-80
2021/09/10 00:24:06;;;;;;;9.07;7.93;;;;;;;16.93;65.61;95557.59;6175364;23;20158;-79
2021/09/10 00:26:31;;;;;;;8.85;8.05;;;;;;;16.94;65.46;95556.56;6174622;23;20179;-80
2021/09/10 00:28:56;;;;;;;8.48;7.75;;;;;;;16.88;65.55;95554.72;6175009;23;20679;-79
2021/09/10 00:31:21;;;;;;;9.93;7.80;;;;;;;16.90;65.46;95557.97;6149695;23;20154;-78
2021/09/10 00:33:47;;;;;;;8.63;7.82;;;;;;;16.90;65.73;95557.97;6148942;23;20167;-79
2021/09/10 00:36:12;;;;;;;7.85;7.05;;;;;;;16.93;65.88;95560.22;6174982;23;20166;-78
2021/09/10 00:38:38;;;;;;;9.57;7.90;;;;;;;16.93;65.59;95552.34;6174273;23;20151;-79
2021/09/10 00:41:03;;;;;;;8.23;7.40;;;;;;;16.92;65.73;95556.78;6149016;23;20222;-79
2021/09/10 00:43:29;;;;;;;7.88;7.00;;;;;;;16.94;65.49;95553.97;6175115;23;20156;-78
2021/09/10 00:45:57;;;;;;;10.38;7.65;;;;;;;16.89;66.07;95548.47;6150168;23;20668;-79
2021/09/10 00:48:22;;;;;;;8.50;7.70;;;;;;;16.88;65.90;95550.28;6175423;23;20227;-80
2021/09/10 00:50:48;;;;;;;8.15;7.35;;;;;;;16.85;66.05;95549.81;6175428;23;20202;-80
2021/09/10 00:53:14;;;;;;;9.15;7.88;;;;;;;16.82;66.29;95550.22;6150088;23;20155;-79
2021/09/10 00:55:41;;;;;;;9.88;8.02;;;;;;;16.81;66.02;95559.88;6173213;23;20254;-80
2021/09/10 00:58:06;;;;;;;9.75;7.72;;;;;;;16.82;66.18;95558.09;6150500;23;20299;-78
2021/09/10 01:00:31;;;;;;;10.35;7.70;;;;;;;16.81;66.04;95557.28;6174509;23;20228;-79
2021/09/10 01:02:57;;;;;;;9.77;8.00;;;;;;;16.78;66.70;95555.00;6170921;23;20159;-78
2021/09/10 01:05:22;;;;;;;8.52;7.57;;;;;;;16.83;66.16;95551.84;6172685;23;20171;-78
2021/09/10 01:07:48;;;;;;;8.63;7.80;;;;;;;16.77;66.42;95557.81;6149767;23;20155;-78
2021/09/10 01:10:14;;;;;;;8.23;7.45;;;;;;;16.81;66.29;95548.59;6176887;23;20206;-77
2021/09/10 01:12:40;;;;;;;9.15;7.10;;;;;;;16.79;66.27;95556.66;6177089;23;20179;-76
2021/09/10 01:15:06;;;;;;;9.57;7.85;;;;;;;16.77;66.06;95553.38;6175370;23;20175;-79
2021/09/10 01:17:31;;;;;;;8.38;7.57;;;;;;;16.82;65.97;95558.09;6175418;23;20166;-77
2021/09/10 01:19:56;;;;;;;8.85;7.90;;;;;;;16.76;66.21;95551.75;6151422;23;20155;-78
2021/09/10 01:22:22;;;;;;;9.27;7.63;;;;;;;16.77;65.83;95552.56;6150298;23;20190;-79
2021/09/10 01:25:11;;;;;;;7.95;7.25;;;;;;;16.74;66.05;95550.31;6173734;23;20179;-77
2021/09/10 01:27:36;;;;;;;10.02;7.82;;;;;;;16.73;66.22;95551.31;6174918;23;20195;-77
2021/09/10 01:30:02;;;;;;;9.35;7.47;;;;;;;16.74;66.37;95543.28;6150080;23;20155;-75
2021/09/10 01:32:28;;;;;;;9.25;7.40;;;;;;;16.74;66.34;95547.69;6174415;23;20155;-77
2021/09/10 01:34:53;;;;;;;9.07;8.07;;;;;;;16.75;66.24;95546.69;6173448;23;20210;-78
2021/09/10 01:37:18;;;;;;;7.82;7.13;;;;;;;16.73;66.13;95549.50;6175116;23;20139;-77
2021/09/10 01:39:44;;;;;;;8.18;7.38;;;;;;;16.74;66.34;95543.28;6147981;23;20214;-78
2021/09/10 01:42:09;;;;;;;8.27;7.47;;;;;;;16.77;66.09;95550.75;6174588;23;20278;-77
2021/09/10 01:44:34;;;;;;;10.13;7.82;;;;;;;16.77;66.02;95542.88;6149797;23;20190;-78
2021/09/10 01:47:00;;;;;;;8.82;7.93;;;;;;;16.76;65.92;95543.06;6152822;23;20243;-77
2021/09/10 01:49:25;;;;;;;8.32;7.43;;;;;;;16.75;65.83;95547.50;6177587;23;20183;-76
2021/09/10 01:51:50;;;;;;;8.55;7.60;;;;;;;16.75;65.89;95546.69;6153079;23;20151;-76
2021/09/10 01:54:16;;;;;;;8.93;7.72;;;;;;;16.74;65.98;95547.69;6177204;23;20179;-78
2021/09/10 01:56:41;;;;;;;8.25;7.55;;;;;;;16.74;66.18;95545.88;6153628;23;20228;-77
2021/09/10 01:59:06;;;;;;;8.88;7.78;;;;;;;16.75;66.18;95550.13;6177311;23;20243;-77
2021/09/10 02:01:33;;;;;;;8.65;7.80;;;;;;;16.75;66.19;95554.56;6177293;23;20175;-76
2021/09/10 02:03:59;;;;;;;10.07;7.45;;;;;;;16.75;66.10;95550.13;6176617;23;20155;-76
2021/09/10 02:06:24;;;;;;;8.02;7.20;;;;;;;16.82;65.84;95550.22;6177054;23;20183;-76
2021/09/10 02:08:49;;;;;;;8.38;7.65;;;;;;;16.78;66.13;95555.00;6178081;23;20211;-78
2021/09/10 02:11:15;;;;;;;8.65;7.47;;;;;;;16.75;66.19;95546.69;6177204;23;20158;-77
2021/09/10 02:13:41;;;;;;;9.07;7.53;;;;;;;16.70;66.05;95549.91;6176564;23;20163;-75
2021/09/10 02:16:07;;;;;;;10.00;7.57;;;;;;;16.73;66.10;95551.31;6152430;23;20175;-77
2021/09/10 02:18:33;;;;;;;8.85;7.95;;;;;;;16.74;65.92;95545.06;6176842;23;20152;-77
2021/09/10 02:20:58;;;;;;;9.43;7.50;;;;;;;16.70;66.08;95548.09;6176372;23;20185;-76
2021/09/10 02:23:23;;;;;;;9.15;7.35;;;;;;;16.68;66.41;95543.97;6150742;23;20154;-76
2021/09/10 02:25:49;;;;;;;7.82;7.03;;;;;;;16.71;66.26;95548.91;6173941;23;20168;-76
2021/09/10 02:28:14;;;;;;;8.05;7.35;;;;;;;16.68;66.45;95542.19;6174350;23;20151;-76
2021/09/10 02:30:39;;;;;;;9.77;7.63;;;;;;;16.64;66.46;95543.53;6144340;23;20151;-76
2021/09/10 02:33:05;;;;;;;7.88;7.10;;;;;;;16.62;66.07;95549.97;6164333;23;20598;-77
2021/09/10 02:35:30;;;;;;;8.40;7.53;;;;;;;16.56;66.31;95540.22;6164184;23;20218;-78
2021/09/10 02:37:55;;;;;;;8.60;7.70;;;;;;;16.60;66.22;95542.28;6139437;23;20218;-77
2021/09/10 02:40:21;;;;;;;9.27;8.05;;;;;;;16.58;66.26;95543.47;6161187;23;20160;-76
2021/09/10 02:42:47;;;;;;;7.93;7.13;;;;;;;16.52;66.41;95539.78;6164323;23;20218;-76
2021/09/10 02:45:12;;;;;;;8.68;7.15;;;;;;;16.52;66.49;95539.78;6163965;23;20516;-77
2021/09/10 02:47:38;;;;;;;9.75;7.80;;;;;;;16.52;66.94;95537.16;6138942;23;20167;-76
2021/09/10 02:50:05;;;;;;;8.15;7.35;;;;;;;16.51;66.71;95535.50;6163037;23;20216;-77
2021/09/10 02:52:33;;;;;;;8.07;7.28;;;;;;;16.45;66.99;95533.66;6139355;23;20664;-77
2021/09/10 02:54:58;;;;;;;8.68;7.78;;;;;;;16.45;67.04;95528.41;6163516;23;20186;-76
2021/09/10 02:57:23;;;;;;;10.65;7.82;;;;;;;16.45;67.28;95538.06;6166230;23;20205;-77
2021/09/10 02:59:49;;;;;;;7.38;6.78;;;;;;;16.41;67.11;95529.75;6140984;23;20246;-78
2021/09/10 03:02:14;;;;;;;7.68;6.93;;;;;;;16.40;66.84;95530.75;6140133;23;20183;-76
2021/09/10 03:04:44;;;;;;;7.63;6.78;;;;;;;16.37;66.99;95531.13;6164391;23;20201;-78
2021/09/10 03:07:09;;;;;;;7.88;7.07;;;;;;;16.38;66.48;95536.19;6165692;23;20586;-78
2021/09/10 03:09:35;;;;;;;8.18;7.43;;;;;;;16.36;66.46;95534.75;6162332;23;20151;-77
2021/09/10 03:12:00;;;;;;;7.70;7.03;;;;;;;16.38;66.47;95532.75;6162419;23;20210;-76
2021/09/10 03:14:26;;;;;;;7.93;7.07;;;;;;;16.37;66.55;95524.06;6175961;23;20186;-76
2021/09/10 03:16:51;;;;;;;7.95;7.20;;;;;;;16.36;66.54;95519.84;6176330;23;20155;-76
2021/09/10 03:19:16;;;;;;;7.82;7.07;;;;;;;16.33;66.68;95525.44;6174190;23;20163;-77
2021/09/10 03:21:42;;;;;;;8.18;7.40;;;;;;;16.31;66.55;95519.56;6173944;23;20190;-77
2021/09/10 03:24:07;;;;;;;7.57;6.88;;;;;;;16.27;66.67;95523.56;6147181;23;20537;-78
2021/09/10 03:26:33;;;;;;;9.65;7.53;;;;;;;16.27;67.09;95520.13;6172421;23;20155;-77
2021/09/10 03:28:58;;;;;;;8.23;7.50;;;;;;;16.30;66.73;95520.56;6171662;23;20182;-78
2021/09/10 03:31:24;;;;;;;8.40;7.60;;;;;;;16.27;66.98;95514.88;6172650;23;20481;-78
2021/09/10 03:33:49;;;;;;;9.65;8.55;;;;;;;16.20;67.31;95516.59;6169143;23;20163;-76
2021/09/10 03:36:14;;;;;;;9.13;7.75;;;;;;;16.14;67.72;95516.34;6172428;23;20194;-78
2021/09/10 03:38:39;;;;;;;8.48;7.55;;;;;;;16.14;67.72;95510.28;6170137;23;20162;-76
2021/09/10 03:41:05;;;;;;;9.98;7.60;;;;;;;16.17;67.68;95512.56;6142380;23;20175;-78
2021/09/10 03:43:30;;;;;;;8.25;7.50;;;;;;;16.10;67.96;95509.84;6167801;23;20159;-79
2021/09/10 03:45:55;;;;;;;8.63;7.72;;;;;;;16.10;68.03;95507.22;6170361;23;20178;-77
2021/09/10 03:48:21;;;;;;;8.52;7.65;;;;;;;16.11;68.51;95501.00;6143923;23;20171;-79
2021/09/10 03:50:46;;;;;;;9.43;7.85;;;;;;;16.09;68.33;95503.00;6166269;23;20155;-77
2021/09/10 03:53:11;;;;;;;7.72;7.03;;;;;;;16.07;68.78;95502.34;6166160;23;20549;-76
2021/09/10 03:55:36;;;;;;;8.77;7.72;;;;;;;16.06;68.58;95505.13;6167825;23;20187;-78
2021/09/10 03:58:03;;;;;;;8.27;7.50;;;;;;;16.03;68.45;95502.91;6140651;23;20162;-77
2021/09/10 04:00:28;;;;;;;9.10;8.20;;;;;;;16.03;68.62;95502.91;6165972;23;20473;-77
2021/09/10 04:02:54;;;;;;;8.63;7.72;;;;;;;16.02;68.39;95504.69;6140907;23;20160;-76
2021/09/10 04:05:19;;;;;;;8.15;7.45;;;;;;;16.06;68.18;95503.34;6165687;23;20186;-77
2021/09/10 04:07:44;;;;;;;7.57;6.88;;;;;;;16.05;67.70;95506.13;6163656;23;20151;-77
2021/09/10 04:10:10;;;;;;;8.35;7.55;;;;;;;16.07;67.47;95506.75;6140869;23;20155;-78
2021/09/10 04:12:35;;;;;;;7.50;6.80;;;;;;;16.09;67.28;95505.59;6163820;23;20151;-77
2021/09/10 04:15:00;;;;;;;7.78;6.97;;;;;;;16.09;66.88;95508.22;6139237;23;20199;-77
2021/09/10 04:17:26;;;;;;;7.43;6.70;;;;;;;16.06;67.15;95508.56;6138702;23;20160;-77
2021/09/10 04:19:51;;;;;;;7.72;7.03;;;;;;;16.03;67.11;95514.19;6137959;23;20174;-77
2021/09/10 04:22:16;;;;;;;7.90;7.20;;;;;;;16.04;67.32;95509.75;6162353;23;20183;-77
2021/09/10 04:24:42;;;;;;;8.20;7.15;;;;;;;16.01;67.75;95508.31;6137077;23;20786;-76
2021/09/10 04:27:07;;;;;;;7.63;6.82;;;;;;;16.00;67.60;95504.09;6162554;23;20163;-77
2021/09/10 04:29:32;;;;;;;8.18;7.40;;;;;;;15.98;67.67;95503.44;6162769;23;20165;-77
2021/09/10 04:31:58;;;;;;;7.65;6.95;;;;;;;16.02;67.51;95506.50;6161955;23;20150;-77
2021/09/10 04:34:23;;;;;;;8.50;7.63;;;;;;;15.99;67.66;95505.06;6136852;23;20183;-78
2021/09/10 04:36:48;;;;;;;8.68;7.88;;;;;;;15.99;67.70;95507.69;6137127;23;20182;-77
2021/09/10 04:39:14;;;;;;;9.90;7.63;;;;;;;16.00;67.67;95509.31;6135951;23;20549;-76
2021/09/10 04:41:39;;;;;;;8.68;7.78;;;;;;;16.05;67.60;95506.13;6163551;23;20633;-77
2021/09/10 04:44:04;;;;;;;9.68;7.72;;;;;;;16.01;67.83;95513.56;6161849;23;20161;-78
2021/09/10 04:46:29;;;;;;;7.93;7.13;;;;;;;16.00;67.78;95509.31;6164106;23;20155;-76
2021/09/10 04:48:55;;;;;;;9.70;7.35;;;;;;;15.96;68.01;95513.28;6164671;23;20467;-77
2021/09/10 04:51:20;;;;;;;8.02;7.32;;;;;;;16.00;68.05;95517.19;6164324;23;20151;-77
2021/09/10 04:53:45;;;;;;;7.95;7.18;;;;;;;16.02;67.98;95519.59;6162331;23;20159;-76
2021/09/10 04:56:11;;;;;;;8.10;7.25;;;;;;;16.02;67.74;95519.59;6163109;23;20214;-80
2021/09/10 04:58:36;;;;;;;8.32;7.55;;;;;;;15.99;67.62;95512.09;6137179;23;20159;-76
2021/09/10 05:01:01;;;;;;;7.85;7.05;;;;;;;16.03;67.35;95511.56;6161891;23;20186;-78
2021/09/10 05:03:27;;;;;;;8.15;7.45;;;;;;;16.05;67.35;95512.19;6162966;23;20393;-76
2021/09/10 05:05:52;;;;;;;8.52;7.72;;;;;;;16.09;67.38;95518.69;6162878;23;20190;-76
2021/09/10 05:08:17;;;;;;;8.35;7.40;;;;;;;16.12;67.34;95518.31;6166872;23;20438;-78
2021/09/10 05:10:43;;;;;;;8.45;7.65;;;;;;;16.15;67.08;95515.34;6166669;23;20178;-76
2021/09/10 05:13:08;;;;;;;8.63;7.90;;;;;;;16.19;67.02;95510.56;6166458;23;20155;-76
2021/09/10 05:15:33;;;;;;;8.70;7.45;;;;;;;16.22;66.83;95512.00;6141068;23;20187;-78
2021/09/10 05:17:59;;;;;;;8.50;7.18;;;;;;;16.25;66.80;95520.28;6166628;23;20187;-78
2021/09/10 05:20:24;;;;;;;10.13;7.50;;;;;;;16.27;67.01;95520.13;6166719;23;20155;-76
2021/09/10 05:22:53;;;;;;;8.20;7.40;;;;;;;16.29;67.02;95518.13;6168310;23;20621;-78
2021/09/10 05:25:19;;;;;;;9.27;8.45;;;;;;;16.32;67.19;95520.38;6167168;23;20652;-78
2021/09/10 05:27:44;;;;;;;9.57;7.38;;;;;;;16.37;67.09;95515.41;6169526;23;20178;-77
2021/09/10 05:30:09;;;;;;;8.45;7.65;;;;;;;16.43;67.03;95514.66;6143987;23;20174;-78
2021/09/10 05:32:35;;;;;;;8.38;7.57;;;;;;;16.51;66.88;95524.22;6167312;23;20171;-77
2021/09/10 05:35:00;;;;;;;9.15;7.63;;;;;;;16.56;66.58;95533.16;6143954;23;20175;-76
2021/09/10 05:37:26;;;;;;;8.15;7.45;;;;;;;16.61;66.66;95527.38;6175679;23;20151;-76
2021/09/10 05:39:51;;;;;;;8.40;7.30;;;;;;;16.63;66.19;95538.50;6173823;23;20162;-77
2021/09/10 05:42:16;;;;;;;7.88;7.13;;;;;;;16.67;65.63;95535.28;6172956;23;20179;-78
2021/09/10 05:44:41;;;;;;;6.82;6.22;;;;;;;16.78;65.10;95538.44;6172439;23;20175;-77
2021/09/10 05:47:07;;;;;;;7.68;6.82;;;;;;;16.73;64.49;95532.97;6174048;23;20156;-79
2021/09/10 05:49:32;;;;;;;8.05;7.28;;;;;;;16.77;64.57;95531.59;6172288;23;20156;-79
2021/09/10 05:51:57;;;;;;;8.00;7.00;;;;;;;16.83;64.41;95526.41;6146615;23;20159;-78
2021/09/10 05:54:23;;;;;;;8.15;7.32;;;;;;;16.87;64.53;95534.72;6126704;23;1022205;-76
2021/09/10 05:56:48;;;;;;;7.93;7.18;;;;;;;16.95;64.21;95540.66;6172094;23;20163;-78
2021/09/10 05:59:13;;;;;;;7.50;6.85;;;;;;;17.03;63.88;95539.72;6146723;23;20159;-76
2021/09/10 06:01:38;;;;;;;8.80;6.97;;;;;;;17.05;63.82;95535.13;6171329;23;20215;-78
2021/09/10 06:04:04;;;;;;;7.97;7.18;;;;;;;17.06;64.12;95539.38;6170139;23;20187;-77
2021/09/10 06:06:29;;;;;;;7.90;7.20;;;;;;;17.11;64.46;95536.97;6172363;23;20234;-79
2021/09/10 06:08:54;;;;;;;8.18;7.00;;;;;;;17.19;63.96;95534.22;6169692;23;20171;-79
2021/09/10 06:11:20;;;;;;;8.02;7.32;;;;;;;17.35;63.70;95535.78;6144779;23;20151;-78
2021/09/10 06:13:45;;;;;;;9.75;7.45;;;;;;;17.55;63.21;95535.91;6167739;23;20166;-79
2021/09/10 06:16:10;;;;;;;7.65;6.82;;;;;;;17.72;63.03;95546.97;6169589;23;20235;-77
2021/09/10 06:18:36;;;;;;;7.32;6.72;;;;;;;17.83;62.68;95549.88;6169310;23;20151;-76
2021/09/10 06:21:03;;;;;;;8.10;7.32;;;;;;;18.11;61.88;95546.44;6168231;23;20199;-76
2021/09/10 06:23:28;;;;;;;9.05;6.95;;;;;;;18.37;61.46;95543.09;6168816;23;20155;-76
2021/09/10 06:25:54;;;;;;;8.05;7.30;;;;;;;18.42;60.65;95545.94;6166697;23;20175;-75
2021/09/10 06:28:19;;;;;;;7.95;6.97;;;;;;;18.51;60.44;95546.59;6167328;23;20166;-78
2021/09/10 06:30:44;;;;;;;7.50;6.80;;;;;;;18.59;60.17;95546.44;6142783;23;20582;-79
2021/09/10 06:33:10;;;;;;;7.40;6.72;;;;;;;18.67;60.17;95547.09;6166471;23;20166;-79
2021/09/10 06:35:35;;;;;;;8.88;7.07;;;;;;;18.74;59.80;95555.00;6166278;23;20194;-79
2021/09/10 06:38:00;;;;;;;7.75;7.05;;;;;;;18.90;59.75;95552.00;6166861;23;20195;-78
2021/09/10 06:40:26;;;;;;;7.85;7.05;;;;;;;19.04;59.36;95552.03;6161123;23;20151;-76
2021/09/10 06:42:53;;;;;;;9.57;7.15;;;;;;;18.87;59.76;95552.41;6164346;23;20152;-76
2021/09/10 06:45:19;;;;;;;8.63;7.80;;;;;;;19.04;59.43;95546.78;6164476;23;20183;-76
2021/09/10 06:47:44;;;;;;;7.40;6.70;;;;;;;19.16;59.42;95550.44;6141182;23;20245;-78
2021/09/10 06:50:10;;;;;;;7.93;7.20;;;;;;;19.11;59.82;95552.88;6166623;23;20612;-77
2021/09/10 06:52:40;;;;;;;6.57;5.93;;;;;;;19.20;58.89;95555.09;6140855;23;20622;-76
2021/09/10 06:55:06;;;;;;;7.50;6.80;;;;;;;19.48;59.10;95554.91;6165023;23;20202;-77
2021/09/10 06:57:31;;;;;;;6.75;6.15;;;;;;;19.70;58.51;95563.47;6167239;23;20680;-77
2021/09/10 06:59:57;;;;;;;7.95;6.38;;;;;;;19.85;57.45;95560.59;6168040;23;20167;-77
2021/09/10 07:02:22;;;;;;;7.20;6.50;;;;;;;19.97;56.45;95553.69;6144933;23;20266;-78
2021/09/10 07:04:47;;;;;;;7.05;6.40;;;;;;;20.09;56.87;95561.78;6168003;23;20251;-76
2021/09/10 07:07:13;;;;;;;7.15;6.55;;;;;;;19.95;57.05;95555.72;6144810;23;20187;-79
2021/09/10 07:09:39;;;;;;;8.68;5.97;;;;;;;19.92;56.94;95564.03;6146673;23;20164;-77
2021/09/10 07:12:05;;;;;;;6.80;6.20;;;;;;;20.19;56.79;95564.78;6145254;23;20215;-78
2021/09/10 07:14:32;;;;;;;7.28;6.63;;;;;;;20.08;57.52;95570.72;6144745;23;20175;-77
2021/09/10 07:16:57;;;;;;;7.20;6.50;;;;;;;19.81;58.12;95569.94;6167100;23;20506;-76
2021/09/10 07:19:23;;;;;;;8.50;7.13;;;;;;;19.88;58.59;95567.28;6141938;23;20165;-77
2021/09/10 07:21:48;;;;;;;9.63;7.22;;;;;;;19.91;58.24;95570.31;6169294;23;20262;-77
2021/09/10 07:24:13;;;;;;;8.82;6.47;;;;;;;19.79;58.00;95575.41;6170050;23;20207;-77
2021/09/10 07:26:38;;;;;;;6.80;6.10;;;;;;;19.77;58.47;95577.41;6169545;23;20168;-77
2021/09/10 07:29:04;;;;;;;7.05;6.35;;;;;;;19.65;59.22;95580.88;6167061;23;20147;-77
2021/09/10 07:31:29;;;;;;;8.60;6.20;;;;;;;19.78;58.28;95581.69;6141098;23;20151;-77
2021/09/10 07:33:54;;;;;;;7.60;6.90;;;;;;;19.91;57.71;95578.22;6168193;23;20152;-76
2021/09/10 07:36:20;;;;;;;7.88;6.88;;;;;;;20.05;58.25;95586.91;6169514;23;20175;-78
2021/09/10 07:38:45;;;;;;;7.95;7.03;;;;;;;20.15;57.83;95587.31;6164445;23;20181;-77
2021/09/10 07:41:11;;;;;;;7.60;6.68;;;;;;;19.94;57.92;95585.72;6141039;23;20188;-77
2021/09/10 07:43:36;;;;;;;7.43;6.72;;;;;;;20.31;56.71;95586.06;6140551;23;20155;-76
2021/09/10 07:46:02;;;;;;;11.25;7.65;;;;;;;20.53;56.82;95582.16;6141120;23;20175;-77
2021/09/10 07:48:27;;;;;;;9.55;6.30;;;;;;;20.90;56.24;95585.06;6164407;23;20159;-77
2021/09/10 07:50:52;;;;;;;7.35;6.70;;;;;;;20.98;56.38;95586.66;6164143;23;20534;-76
2021/09/10 07:53:18;;;;;;;7.50;6.15;;;;;;;21.32;55.13;95588.91;6164491;23;20215;-77
2021/09/10 07:55:43;;;;;;;7.15;6.45;;;;;;;21.08;54.03;95593.09;6163181;23;20210;-77
2021/09/10 07:58:08;;;;;;;7.50;6.35;;;;;;;21.33;53.88;95595.81;6164980;23;20178;-79
2021/09/10 08:00:33;;;;;;;7.05;6.35;;;;;;;21.32;54.09;95593.38;6164345;23;20251;-77
2021/09/10 08:02:59;;;;;;;7.40;6.78;;;;;;;20.82;52.88;95601.13;6165847;23;20238;-78
2021/09/10 08:05:24;;;;;;;8.40;6.20;;;;;;;20.61;56.78;95613.59;6172949;23;20171;-76
2021/09/10 08:07:50;;;;;;;7.20;6.35;;;;;;;20.93;56.01;95600.47;6149970;23;20502;-78
2021/09/10 08:10:16;;;;;;;7.07;6.47;;;;;;;20.78;57.56;95606.03;6174048;23;20162;-78
2021/09/10 08:12:46;;;;;;;7.30;6.70;;;;;;;20.87;57.41;95601.31;6173145;23;20193;-79
2021/09/10 08:15:13;;;;;;;7.78;7.07;;;;;;;21.07;58.52;95611.78;6145524;23;20179;-77
2021/09/10 08:17:38;;;;;;;6.85;6.20;;;;;;;21.33;57.91;95616.94;6170518;23;20544;-79
2021/09/10 08:20:05;;;;;;;7.63;6.93;;;;;;;20.96;56.45;95604.53;6141535;23;20175;-76
2021/09/10 08:22:30;;;;;;;7.63;6.93;;;;;;;20.81;57.55;95618.00;6163890;23;20202;-77
2021/09/10 08:24:59;;;;;;;7.65;6.85;;;;;;;20.86;57.18;95621.63;6138093;23;20258;-78
2021/09/10 08:27:25;;;;;;;7.45;6.70;;;;;;;21.02;56.73;95630.06;6164606;23;20155;-76
2021/09/10 08:29:52;;;;;;;7.15;6.55;;;;;;;20.95;56.71;95619.56;6164742;23;20158;-77
2021/09/10 08:32:17;;;;;;;7.78;6.97;;;;;;;20.91;57.30;95621.78;6139918;23;20187;-78
2021/09/10 08:34:43;;;;;;;7.22;6.53;;;;;;;20.95;56.18;95624.84;6163780;23;20174;-77
2021/09/10 08:37:08;;;;;;;7.53;6.82;;;;;;;20.62;56.89;95630.25;6164167;23;20170;-77
2021/09/10 08:39:33;;;;;;;7.38;6.68;;;;;;;20.30;56.71;95639.81;6163039;23;20162;-77
2021/09/10 08:41:59;;;;;;;7.45;6.72;;;;;;;20.52;57.88;95635.16;6165818;23;20187;-76
2021/09/10 08:44:26;;;;;;;7.50;6.80;;;;;;;20.59;57.32;95646.50;6165109;23;20179;-76
2021/09/10 08:46:52;;;;;;;7.55;6.80;;;;;;;20.64;57.33;95644.84;6142035;23;20158;-78
2021/09/10 08:49:17;;;;;;;7.63;6.85;;;;;;;20.56;57.97;95645.06;6164888;23;20258;-79
2021/09/10 08:51:43;;;;;;;7.93;6.57;;;;;;;20.45;58.14;95650.97;6140690;23;20151;-77
2021/09/10 08:54:08;;;;;;;8.13;7.30;;;;;;;20.78;58.08;95655.38;6166370;23;20155;-78
2021/09/10 08:56:34;;;;;;;9.35;8.40;;;;;;;20.99;58.53;95648.97;6164805;23;20586;-78
2021/09/10 08:59:09;;;;;;;8.63;7.82;;;;;;;21.14;57.84;95655.63;6140709;23;20209;-77
2021/09/10 09:01:34;;;;;;;7.95;7.15;;;;;;;21.54;56.92;95649.31;6165099;23;20261;-77
2021/09/10 09:04:04;;;;;;;9.63;8.38;;;;;;;21.53;56.30;95653.00;6164472;23;20505;-79
2021/09/10 09:06:33;;;;;;;10.15;7.32;;;;;;;21.49;54.87;95652.63;6167068;23;20151;-77
2021/09/10 09:08:59;;;;;;;8.13;7.00;;;;;;;21.25;55.88;95645.41;6167263;23;20151;-78
2021/09/10 09:11:24;;;;;;;8.43;7.60;;;;;;;21.27;56.14;95649.47;6167864;23;20226;-76
2021/09/10 09:13:53;;;;;;;7.45;6.78;;;;;;;21.36;56.73;95652.69;6142159;23;20167;-77
2021/09/10 09:16:30;;;;;;;8.52;7.57;;;;;;;21.52;54.14;95646.09;6166454;23;20171;-76
2021/09/10 09:18:57;;;;;;;7.00;6.40;;;;;;;21.52;55.03;95648.72;6167172;23;20589;-77
2021/09/10 09:21:34;;;;;;;7.35;6.63;;;;;;;21.62;54.13;95651.72;6166222;23;20502;-78
2021/09/10 09:24:20;;;;;;;7.13;6.53;;;;;;;21.93;52.98;95648.25;6165822;23;20150;-78
2021/09/10 09:26:49;;;;;;;7.22;6.40;;;;;;;21.96;53.47;95651.25;6166860;23;20166;-78
2021/09/10 09:29:19;;;;;;;8.02;7.22;;;;;;;22.02;53.58;95652.22;6142209;23;20297;-76
2021/09/10 09:32:01;;;;;;;7.70;7.00;;;;;;;22.06;52.02;95653.41;6167523;23;20176;-78
2021/09/10 09:34:44;;;;;;;7.30;6.70;;;;;;;22.18;52.57;95659.66;6165937;23;20518;-78
2021/09/10 09:37:09;;;;;;;6.88;6.28;;;;;;;22.18;51.89;95657.00;6166910;23;20202;-77
2021/09/10 09:39:54;;;;;;;7.47;6.57;;;;;;;22.40;52.25;95648.66;6163083;23;20152;-78
2021/09/10 09:42:37;;;;;;;6.55;5.95;;;;;;;22.68;52.75;95656.91;6140901;23;20196;-77
2021/09/10 09:45:24;;;;;;;7.25;6.55;;;;;;;22.73;52.74;95651.78;6163182;23;20180;-79
2021/09/10 09:47:50;;;;;;;7.97;7.18;;;;;;;22.77;52.16;95663.53;6165437;23;20162;-77
2021/09/10 09:50:18;;;;;;;7.15;6.55;;;;;;;22.36;52.26;95658.06;6166405;23;20152;-77
2021/09/10 09:52:44;;;;;;;7.20;6.60;;;;;;;22.63;53.10;95656.78;6167311;23;20198;-78
2021/09/10 09:55:12;;;;;;;6.53;5.93;;;;;;;22.39;53.02;95662.91;6165053;23;20207;-79
2021/09/10 09:57:38;;;;;;;6.80;6.20;;;;;;;22.66;51.33;95668.75;6167271;23;20197;-77
2021/09/10 10:00:05;;;;;;;6.90;6.30;;;;;;;22.11;53.14;95658.09;6163311;23;20597;-79
2021/09/10 10:02:30;;;;;;;7.35;6.43;;;;;;;21.69;54.45;95658.56;6162075;23;20254;-77
2021/09/10 10:04:59;;;;;;;7.97;7.18;;;;;;;22.32;53.28;95655.84;6161466;23;20214;-77
2021/09/10 10:07:30;;;;;;;8.30;6.72;;;;;;;22.60;53.01;95657.19;6163972;23;20219;-78
2021/09/10 10:09:56;;;;;;;7.60;6.75;;;;;;;22.77;52.31;95660.88;6164096;23;20139;-77
2021/09/10 10:12:24;;;;;;;8.07;7.28;;;;;;;22.68;51.90;95651.63;6163855;23;20151;-77
2021/09/10 10:14:49;;;;;;;7.25;6.65;;;;;;;22.66;52.68;95656.31;6162962;23;20171;-78
2021/09/10 10:17:30;;;;;;;7.50;6.78;;;;;;;22.42;53.14;95657.19;6168310;23;20210;-77
2021/09/10 10:19:55;;;;;;;6.85;6.25;;;;;;;22.72;53.68;95658.09;6167551;23;20163;-77
2021/09/10 10:22:35;;;;;;;7.32;6.28;;;;;;;22.68;52.31;95651.63;6166628;23;20205;-78
2021/09/10 10:25:03;;;;;;;7.60;6.85;;;;;;;22.89;52.36;95651.22;6168149;23;20285;-78
2021/09/10 10:27:41;;;;;;;7.10;6.47;;;;;;;22.85;52.59;95646.56;6169091;23;20187;-79
2021/09/10 10:30:06;;;;;;;7.40;6.70;;;;;;;22.94;52.24;95644.44;6168226;23;20162;-79
2021/09/10 10:32:39;;;;;;;7.13;6.53;;;;;;;23.21;52.86;95640.41;6166971;23;20159;-78
2021/09/10 10:35:19;;;;;;;7.25;6.55;;;;;;;23.01;51.72;95653.91;6165598;23;20171;-78
2021/09/10 10:37:48;;;;;;;7.53;6.70;;;;;;;23.44;50.77;95656.41;6166763;23;20385;-77
2021/09/10 10:40:34;;;;;;;7.03;6.32;;;;;;;23.18;50.20;95646.97;6164392;23;20503;-79
2021/09/10 10:43:04;;;;;;;6.28;5.78;;;;;;;23.30;50.36;95639.06;6165930;23;20147;-78
2021/09/10 10:45:41;;;;;;;6.93;6.30;;;;;;;23.08;51.13;95641.41;6165493;23;20171;-78
2021/09/10 10:48:35;;;;;;;6.78;6.28;;;;;;;23.31;51.74;95638.03;6170422;23;20210;-79
2021/09/10 10:51:22;;;;;;;6.75;6.15;;;;;;;23.35;50.65;95636.56;6166445;23;20158;-80
2021/09/10 10:53:47;;;;;;;7.30;6.60;;;;;;;23.49;49.11;95639.81;6164729;23;20178;-78
2021/09/10 10:56:25;;;;;;;6.82;6.22;;;;;;;23.39;49.14;95636.91;6164079;23;20187;-78
2021/09/10 10:59:17;;;;;;;7.05;6.55;;;;;;;23.32;49.49;95634.38;6165517;23;20504;-77
2021/09/10 11:02:20;;;;;;;7.45;6.75;;;;;;;23.26;49.61;95635.25;6165460;23;20187;-78
2021/09/10 11:04:47;;;;;;;7.18;6.47;;;;;;;23.69;49.51;95629.78;6163824;23;20183;-77
2021/09/10 11:07:33;;;;;;;7.35;6.65;;;;;;;23.49;48.98;95631.06;6165066;23;20151;-78
2021/09/10 11:10:16;;;;;;;7.25;6.65;;;;;;;23.61;48.71;95632.75;6140285;23;20163;-79
2021/09/10 11:12:43;;;;;;;7.57;6.88;;;;;;;23.33;50.36;95630.69;6166778;23;20223;-79
2021/09/10 11:15:17;;;;;;;7.22;6.63;;;;;;;23.25;49.76;95628.34;6165397;23;20225;-77
2021/09/10 11:17:43;;;;;;;7.13;6.43;;;;;;;23.27;50.02;95634.22;6164378;23;20234;-78
2021/09/10 11:20:09;;;;;;;7.15;6.55;;;;;;;23.17;50.85;95620.72;6140777;23;20155;-79
2021/09/10 11:22:48;;;;;;;7.20;6.60;;;;;;;23.39;48.61;95621.81;6166251;23;20245;-79
2021/09/10 11:25:13;;;;;;;6.90;6.28;;;;;;;23.22;49.91;95623.47;6140475;23;20174;-79
2021/09/10 11:27:39;;;;;;;7.38;6.68;;;;;;;23.09;50.28;95627.13;6140125;23;20204;-77
2021/09/10 11:30:12;;;;;;;7.85;7.07;;;;;;;23.11;50.51;95625.06;6165451;23;20175;-79
2021/09/10 11:32:37;;;;;;;7.65;6.85;;;;;;;23.48;50.36;95629.44;6139321;23;20152;-77
2021/09/10 11:35:16;;;;;;;6.78;6.05;;;;;;;23.77;49.96;95625.19;6162635;23;20510;-78